createdAt,value
2023-03-29T00:00:19.497Z,3.70
2023-03-29T00:01:35.133Z,3.72
2023-03-29T00:02:38.203Z,3.00
2023-03-29T00:03:40.523Z,3.33
2023-03-29T00:04:42.501Z,3.33
2023-03-29T00:05:45.031Z,3.20
2023-03-29T00:06:48.099Z,3.60
2023-03-29T00:08:01.943Z,3.45
2023-03-29T00:09:05.724Z,3.40
2023-03-29T00:10:10.138Z,3.08
2023-03-29T00:11:12.806Z,3.38
2023-03-29T00:12:14.563Z,3.70
2023-03-29T00:13:16.432Z,3.60
2023-03-29T00:14:18.104Z,3.50
2023-03-29T00:15:20.722Z,3.38
2023-03-29T00:16:22.758Z,3.72
2023-03-29T00:17:24.510Z,3.20
2023-03-29T00:18:26.400Z,3.22
2023-03-29T00:19:29.174Z,3.30
2023-03-29T00:20:30.940Z,3.42
2023-03-29T00:21:32.673Z,3.38
2023-03-29T00:22:34.314Z,3.72
2023-03-29T00:23:35.972Z,3.78
2023-03-29T00:24:37.827Z,4.10
2023-03-29T00:25:44.977Z,3.05
2023-03-29T00:26:46.649Z,3.67
2023-03-29T00:27:48.356Z,3.03
2023-03-29T00:28:50.386Z,3.28
2023-03-29T00:29:52.074Z,3.97
2023-03-29T00:30:53.852Z,3.53
2023-03-29T00:31:56.243Z,3.33
2023-03-29T00:32:58.015Z,2.97
2023-03-29T00:33:59.721Z,3.45
2023-03-29T00:35:01.741Z,3.70
2023-03-29T00:36:04.729Z,3.78
2023-03-29T00:37:09.026Z,3.67
2023-03-29T00:38:11.095Z,3.35
2023-03-29T00:39:12.781Z,3.45
2023-03-29T00:40:15.761Z,3.22
2023-03-29T00:41:17.637Z,3.88
2023-03-29T00:42:19.343Z,3.75
2023-03-29T00:43:21.028Z,2.85
2023-03-29T00:44:56.089Z,3.83
2023-03-29T00:45:57.901Z,3.67
2023-03-29T00:46:59.608Z,3.42
2023-03-29T00:48:04.611Z,4.10
2023-03-29T00:49:12.994Z,3.67
2023-03-29T00:50:26.453Z,3.28
2023-03-29T00:51:33.079Z,2.88
2023-03-29T00:52:35.904Z,3.33
2023-03-29T00:53:43.226Z,3.53
2023-03-29T00:54:46.805Z,3.80
2023-03-29T00:56:18.824Z,3.40
2023-03-29T00:57:22.837Z,3.50
2023-03-29T00:58:37.594Z,3.00
2023-03-29T00:59:42.216Z,3.15
2023-03-29T01:00:53.911Z,4.18
2023-03-29T01:02:02.616Z,3.40
2023-03-29T01:03:13.858Z,3.20
2023-03-29T01:04:25.210Z,3.42
2023-03-29T01:05:32.673Z,3.45
2023-03-29T01:06:37.490Z,3.40
2023-03-29T01:07:48.289Z,3.80
2023-03-29T01:09:01.427Z,3.00
2023-03-29T01:10:29.283Z,3.25
2023-03-29T01:11:42.575Z,2.88
2023-03-29T01:12:48.848Z,3.47
2023-03-29T01:13:55.295Z,3.17
2023-03-29T01:15:02.318Z,3.50
2023-03-29T01:16:05.115Z,3.25
2023-03-29T01:17:07.337Z,3.25
2023-03-29T01:18:10.243Z,3.22
2023-03-29T01:20:25.221Z,2.80
2023-03-29T01:21:44.785Z,3.17
2023-03-29T01:22:55.568Z,3.28
2023-03-29T01:24:15.651Z,3.35
2023-03-29T01:25:37.834Z,3.03
2023-03-29T01:27:02.235Z,3.30
2023-03-29T01:28:11.580Z,3.53
2023-03-29T01:29:16.963Z,3.30
2023-03-29T01:30:26.859Z,4.00
2023-03-29T01:31:37.220Z,3.47
2023-03-29T01:32:55.797Z,3.53
2023-03-29T01:34:12.979Z,3.15
2023-03-29T01:35:22.586Z,4.50
2023-03-29T01:36:49.598Z,3.63
2023-03-29T01:37:58.948Z,3.50
2023-03-29T01:39:06.269Z,3.33
2023-03-29T01:40:08.685Z,3.40
2023-03-29T01:41:11.162Z,3.40
2023-03-29T01:42:35.896Z,3.15
2023-03-29T01:43:42.913Z,3.17
2023-03-29T01:44:58.889Z,3.15
2023-03-29T01:46:06.985Z,3.60
2023-03-29T01:47:27.805Z,3.60
2023-03-29T01:48:36.627Z,3.08
2023-03-29T01:49:51.065Z,3.58
2023-03-29T01:51:22.922Z,3.45
2023-03-29T01:52:32.205Z,3.15
2023-03-29T01:53:47.338Z,3.25
2023-03-29T01:56:15.226Z,3.47
2023-03-29T01:57:18.096Z,3.05
2023-03-29T01:59:28.484Z,3.00
2023-03-29T02:00:31.820Z,2.38
2023-03-29T02:01:41.174Z,3.00
2023-03-29T02:02:45.700Z,2.78
2023-03-29T02:03:51.047Z,3.00
2023-03-29T02:04:55.281Z,3.20
2023-03-29T02:05:59.457Z,3.38
2023-03-29T02:07:03.265Z,3.22
2023-03-29T02:08:07.884Z,3.35
2023-03-29T02:09:09.615Z,2.80
2023-03-29T02:10:12.464Z,3.20
2023-03-29T02:12:17.163Z,2.75
2023-03-29T02:13:19.777Z,3.40
2023-03-29T02:14:21.549Z,3.00
2023-03-29T02:15:23.767Z,3.22
2023-03-29T02:16:25.540Z,3.13
2023-03-29T02:17:28.437Z,2.95
2023-03-29T02:19:32.818Z,3.33
2023-03-29T02:20:39.296Z,4.35
2023-03-29T02:21:51.962Z,3.22
2023-03-29T02:23:06.612Z,3.05
2023-03-29T02:24:13.486Z,2.90
2023-03-29T02:25:16.640Z,3.38
2023-03-29T02:26:19.110Z,3.33
2023-03-29T02:27:20.868Z,2.85
2023-03-29T02:28:24.482Z,3.30
2023-03-29T02:29:26.551Z,2.65
2023-03-29T02:30:33.847Z,3.30
2023-03-29T02:31:43.083Z,3.10
2023-03-29T02:33:06.640Z,3.10
2023-03-29T02:34:21.686Z,2.90
2023-03-29T02:35:34.593Z,3.05
2023-03-29T02:36:38.370Z,3.40
2023-03-29T02:37:44.475Z,3.42
2023-03-29T02:38:46.570Z,2.88
2023-03-29T02:39:49.976Z,3.00
2023-03-29T02:40:53.110Z,3.15
2023-03-29T02:41:55.768Z,3.05
2023-03-29T02:42:58.501Z,2.88
2023-03-29T02:44:02.274Z,3.28
2023-03-29T02:45:05.258Z,3.35
2023-03-29T02:47:20.773Z,3.20
2023-03-29T02:48:27.321Z,3.13
2023-03-29T02:49:29.393Z,3.33
2023-03-29T02:50:38.514Z,3.65
2023-03-29T02:52:48.968Z,3.30
2023-03-29T02:54:00.525Z,2.97
2023-03-29T02:55:03.621Z,3.72
2023-03-29T02:56:05.737Z,3.50
2023-03-29T02:57:07.675Z,3.40
2023-03-29T02:58:09.535Z,3.45
2023-03-29T02:59:12.450Z,3.15
2023-03-29T03:00:20.249Z,3.17
2023-03-29T03:01:23.188Z,3.22
2023-03-29T03:02:26.107Z,2.53
2023-03-29T03:04:29.828Z,3.13
2023-03-29T03:05:31.565Z,3.28
2023-03-29T03:06:33.232Z,2.92
2023-03-29T03:07:34.961Z,3.08
2023-03-29T03:08:36.680Z,3.20
2023-03-29T03:09:38.369Z,2.60
2023-03-29T03:10:40.129Z,3.13
2023-03-29T03:11:42.461Z,2.72
2023-03-29T03:12:44.130Z,2.72
2023-03-29T03:13:45.995Z,2.83
2023-03-29T03:14:47.840Z,3.03
2023-03-29T03:15:49.689Z,2.60
2023-03-29T03:16:53.087Z,3.00
2023-03-29T03:17:55.240Z,2.50
2023-03-29T03:18:57.116Z,3.03
2023-03-29T03:19:59.333Z,2.90
2023-03-29T03:21:02.358Z,3.15
2023-03-29T03:22:06.141Z,3.03
2023-03-29T03:23:09.863Z,3.15
2023-03-29T03:24:11.486Z,2.97
2023-03-29T03:25:13.363Z,3.65
2023-03-29T03:26:16.735Z,2.92
2023-03-29T03:27:18.592Z,2.95
2023-03-29T03:28:22.223Z,2.75
2023-03-29T03:29:25.631Z,2.97
2023-03-29T03:30:27.725Z,3.20
2023-03-29T03:31:29.494Z,2.97
2023-03-29T03:32:33.655Z,3.60
2023-03-29T03:33:35.328Z,3.83
2023-03-29T03:34:37.033Z,3.83
2023-03-29T03:35:39.380Z,4.28
2023-03-29T03:36:41.161Z,4.00
2023-03-29T03:37:43.194Z,3.50
2023-03-29T03:38:45.301Z,3.25
2023-03-29T03:39:46.992Z,3.45
2023-03-29T03:40:56.417Z,3.17
2023-03-29T03:41:58.227Z,3.08
2023-03-29T03:42:59.909Z,3.65
2023-03-29T03:44:02.007Z,3.30
2023-03-29T03:45:03.942Z,3.53
2023-03-29T03:46:05.905Z,3.63
2023-03-29T03:47:08.127Z,2.72
2023-03-29T03:48:09.938Z,3.05
2023-03-29T03:49:12.312Z,3.53
2023-03-29T03:50:14.181Z,2.85
2023-03-29T03:51:15.863Z,3.25
2023-03-29T03:52:18.664Z,3.20
2023-03-29T03:53:21.441Z,4.50
2023-03-29T03:54:23.106Z,3.35
2023-03-29T03:55:24.796Z,3.47
2023-03-29T03:56:30.030Z,3.55
2023-03-29T03:57:33.337Z,3.35
2023-03-29T03:58:36.661Z,3.72
2023-03-29T03:59:39.218Z,2.75
2023-03-29T04:00:41.995Z,3.38
2023-03-29T04:01:43.913Z,3.50
2023-03-29T04:02:48.864Z,2.83
2023-03-29T04:03:51.087Z,3.83
2023-03-29T04:04:52.939Z,3.10
2023-03-29T04:05:54.629Z,3.15
2023-03-29T04:07:02.822Z,2.80
2023-03-29T04:08:06.924Z,3.40
2023-03-29T04:09:09.431Z,3.10
2023-03-29T04:10:11.381Z,3.03
2023-03-29T04:11:13.011Z,3.03
2023-03-29T04:12:14.963Z,2.65
2023-03-29T04:13:17.397Z,2.85
2023-03-29T04:14:19.055Z,3.17
2023-03-29T04:15:20.980Z,3.00
2023-03-29T04:16:22.704Z,3.10
2023-03-29T04:17:24.377Z,3.15
2023-03-29T04:18:26.564Z,3.45
2023-03-29T04:19:28.403Z,2.75
2023-03-29T04:20:30.761Z,2.83
2023-03-29T04:21:34.026Z,3.28
2023-03-29T04:22:36.118Z,3.15
2023-03-29T04:23:37.835Z,3.10
2023-03-29T04:24:39.555Z,3.40
2023-03-29T04:25:41.718Z,3.50
2023-03-29T04:26:43.992Z,2.83
2023-03-29T04:27:46.409Z,3.22
2023-03-29T04:28:48.121Z,3.33
2023-03-29T04:29:49.775Z,3.05
2023-03-29T04:30:52.481Z,3.50
2023-03-29T04:31:54.815Z,3.28
2023-03-29T04:32:56.539Z,3.72
2023-03-29T04:34:00.312Z,3.25
2023-03-29T04:35:02.623Z,2.88
2023-03-29T04:36:05.898Z,2.88
2023-03-29T04:37:10.686Z,3.28
2023-03-29T04:38:12.505Z,3.17
2023-03-29T04:39:14.659Z,3.33
2023-03-29T04:40:19.475Z,3.53
2023-03-29T04:41:21.273Z,3.10
2023-03-29T04:42:23.534Z,3.05
2023-03-29T04:43:25.256Z,3.13
2023-03-29T04:44:27.135Z,3.10
2023-03-29T04:45:29.294Z,3.20
2023-03-29T04:46:32.576Z,3.30
2023-03-29T04:47:36.576Z,2.90
2023-03-29T04:48:38.769Z,3.15
2023-03-29T04:49:41.441Z,3.92
2023-03-29T04:50:46.508Z,2.85
2023-03-29T04:51:48.232Z,3.42
2023-03-29T04:52:50.951Z,2.83
2023-03-29T04:53:52.627Z,3.60
2023-03-29T04:54:54.319Z,3.10
2023-03-29T04:55:56.101Z,3.28
2023-03-29T04:56:57.845Z,2.95
2023-03-29T04:57:59.747Z,2.97
2023-03-29T04:59:01.567Z,3.60
2023-03-29T05:00:13.945Z,3.15
2023-03-29T05:01:15.963Z,3.35
2023-03-29T05:02:17.694Z,2.92
2023-03-29T05:03:19.428Z,3.33
2023-03-29T05:04:21.182Z,3.05
2023-03-29T05:05:22.991Z,3.45
2023-03-29T05:06:24.805Z,3.20
2023-03-29T05:07:26.492Z,3.03
2023-03-29T05:08:28.216Z,3.47
2023-03-29T05:09:30.136Z,3.38
2023-03-29T05:10:31.819Z,3.10
2023-03-29T05:11:33.594Z,2.78
2023-03-29T05:12:35.505Z,3.30
2023-03-29T05:13:37.843Z,3.00
2023-03-29T05:14:39.962Z,2.75
2023-03-29T05:15:42.191Z,3.28
2023-03-29T05:16:44.542Z,3.45
2023-03-29T05:17:46.521Z,3.22
2023-03-29T05:18:48.305Z,3.35
2023-03-29T05:19:49.981Z,3.13
2023-03-29T05:20:53.269Z,3.38
2023-03-29T05:21:54.996Z,3.80
2023-03-29T05:22:56.984Z,3.60
2023-03-29T05:23:58.901Z,3.50
2023-03-29T05:25:00.872Z,3.20
2023-03-29T05:26:02.832Z,3.55
2023-03-29T05:27:05.114Z,3.25
2023-03-29T05:28:06.830Z,3.08
2023-03-29T05:29:09.293Z,3.17
2023-03-29T05:30:12.135Z,3.50
2023-03-29T05:32:18.519Z,3.55
2023-03-29T05:33:20.245Z,3.28
2023-03-29T05:34:22.037Z,3.33
2023-03-29T05:35:25.710Z,3.53
2023-03-29T05:36:27.452Z,3.30
2023-03-29T05:37:29.167Z,3.40
2023-03-29T05:38:32.961Z,3.30
2023-03-29T05:39:37.569Z,3.35
2023-03-29T05:40:39.514Z,3.70
2023-03-29T05:41:41.865Z,3.30
2023-03-29T05:42:43.683Z,3.60
2023-03-29T05:43:45.362Z,3.20
2023-03-29T05:44:47.064Z,3.22
2023-03-29T05:45:48.933Z,2.78
2023-03-29T05:46:50.854Z,3.10
2023-03-29T05:47:52.592Z,4.30
2023-03-29T05:48:54.423Z,2.97
2023-03-29T05:49:56.142Z,3.10
2023-03-29T05:50:58.069Z,3.00
2023-03-29T05:52:00.240Z,2.95
2023-03-29T05:53:01.971Z,3.20
2023-03-29T05:54:03.824Z,3.70
2023-03-29T05:55:05.990Z,3.15
2023-03-29T05:56:09.044Z,3.85
2023-03-29T05:57:10.803Z,3.75
2023-03-29T05:58:13.631Z,3.47
2023-03-29T05:59:15.357Z,2.85
2023-03-29T06:00:24.237Z,2.85
2023-03-29T06:02:28.711Z,3.47
2023-03-29T06:03:30.673Z,3.58
2023-03-29T06:04:33.901Z,3.30
2023-03-29T06:05:35.847Z,3.10
2023-03-29T06:06:37.784Z,3.30
2023-03-29T06:07:39.607Z,3.10
2023-03-29T06:08:42.029Z,3.17
2023-03-29T06:09:44.963Z,3.78
2023-03-29T06:11:48.462Z,2.65
2023-03-29T06:12:51.049Z,3.20
2023-03-29T06:13:53.117Z,3.78
2023-03-29T06:14:55.236Z,4.20
2023-03-29T06:15:57.017Z,3.72
2023-03-29T06:16:58.790Z,3.72
2023-03-29T06:18:03.850Z,3.90
2023-03-29T06:19:07.005Z,3.40
2023-03-29T06:20:11.541Z,3.28
2023-03-29T06:21:13.853Z,3.45
2023-03-29T06:22:15.592Z,2.75
2023-03-29T06:23:18.292Z,3.10
2023-03-29T06:24:20.904Z,3.45
2023-03-29T06:25:22.870Z,3.45
2023-03-29T06:26:25.203Z,3.75
2023-03-29T06:27:26.890Z,3.22
2023-03-29T06:28:28.635Z,3.20
2023-03-29T06:29:30.481Z,3.65
2023-03-29T06:30:32.283Z,3.45
2023-03-29T06:31:36.371Z,4.07
2023-03-29T06:32:38.260Z,3.42
2023-03-29T06:33:40.855Z,3.92
2023-03-29T06:34:42.490Z,3.42
2023-03-29T06:35:47.213Z,3.55
2023-03-29T06:36:51.152Z,3.10
2023-03-29T06:37:53.845Z,3.35
2023-03-29T06:38:55.621Z,3.25
2023-03-29T06:39:58.181Z,2.97
2023-03-29T06:41:04.940Z,2.80
2023-03-29T06:42:20.111Z,2.72
2023-03-29T06:43:22.900Z,3.20
2023-03-29T06:44:25.719Z,2.92
2023-03-29T06:45:29.701Z,2.50
2023-03-29T06:46:31.851Z,3.78
2023-03-29T06:47:33.691Z,3.10
2023-03-29T06:48:35.611Z,2.80
2023-03-29T06:49:37.524Z,3.05
2023-03-29T06:50:39.220Z,2.85
2023-03-29T06:51:41.413Z,3.10
2023-03-29T06:52:44.022Z,3.15
2023-03-29T06:53:46.409Z,3.13
2023-03-29T06:54:48.130Z,3.55
2023-03-29T06:55:52.030Z,3.00
2023-03-29T06:56:53.672Z,2.83
2023-03-29T06:57:55.797Z,3.30
2023-03-29T06:58:57.512Z,3.22
2023-03-29T06:59:59.217Z,2.60
2023-03-29T07:01:05.202Z,2.92
2023-03-29T07:02:09.041Z,3.33
2023-03-29T07:03:13.582Z,3.03
2023-03-29T07:04:17.888Z,3.10
2023-03-29T07:05:20.379Z,2.63
2023-03-29T07:06:22.571Z,2.85
2023-03-29T07:07:27.742Z,3.30
2023-03-29T07:08:31.746Z,3.08
2023-03-29T07:09:33.724Z,3.38
2023-03-29T07:10:41.431Z,2.83
2023-03-29T07:11:43.796Z,3.17
2023-03-29T07:12:46.468Z,3.10
2023-03-29T07:13:49.284Z,2.63
2023-03-29T07:15:52.808Z,2.40
2023-03-29T07:16:55.903Z,2.92
2023-03-29T07:17:58.152Z,3.00
2023-03-29T07:19:00.399Z,2.67
2023-03-29T07:20:02.344Z,3.33
2023-03-29T07:21:05.148Z,2.58
2023-03-29T07:22:08.233Z,3.13
2023-03-29T07:24:13.126Z,2.40
2023-03-29T07:25:16.624Z,2.65
2023-03-29T07:26:28.799Z,2.63
2023-03-29T07:27:32.179Z,2.60
2023-03-29T07:28:34.806Z,2.55
2023-03-29T07:29:37.386Z,2.13
2023-03-29T07:30:39.088Z,2.85
2023-03-29T07:31:42.033Z,2.20
2023-03-29T07:32:46.693Z,2.03
2023-03-29T07:33:52.624Z,2.78
2023-03-29T07:34:54.465Z,2.50
2023-03-29T07:35:56.164Z,2.20
2023-03-29T07:36:58.085Z,2.60
2023-03-29T07:37:59.874Z,2.53
2023-03-29T07:39:02.137Z,2.85
2023-03-29T07:40:12.896Z,2.15
2023-03-29T07:41:14.836Z,2.80
2023-03-29T07:42:16.488Z,2.05
2023-03-29T07:43:18.546Z,2.40
2023-03-29T07:44:21.819Z,2.70
2023-03-29T07:45:26.762Z,3.03
2023-03-29T07:46:30.146Z,2.25
2023-03-29T07:47:32.277Z,2.55
2023-03-29T07:48:34.099Z,3.13
2023-03-29T07:49:35.810Z,2.75
2023-03-29T07:50:37.492Z,2.45
2023-03-29T07:51:39.257Z,2.55
2023-03-29T07:52:41.322Z,2.97
2023-03-29T07:53:43.230Z,3.13
2023-03-29T07:54:45.580Z,3.05
2023-03-29T07:55:49.238Z,2.38
2023-03-29T07:56:51.250Z,2.05
2023-03-29T07:57:53.747Z,2.42
2023-03-29T07:58:55.388Z,2.60
2023-03-29T07:59:57.136Z,2.35
2023-03-29T08:01:00.829Z,2.90
2023-03-29T08:02:02.776Z,2.60
2023-03-29T08:03:04.538Z,2.72
2023-03-29T08:04:06.749Z,2.25
2023-03-29T08:05:09.307Z,2.45
2023-03-29T08:06:11.080Z,2.30
2023-03-29T08:07:13.720Z,2.33
2023-03-29T08:08:15.486Z,2.15
2023-03-29T08:09:17.521Z,2.50
2023-03-29T08:10:21.328Z,2.45
2023-03-29T08:11:24.890Z,2.22
2023-03-29T08:12:26.730Z,2.45
2023-03-29T08:13:28.402Z,2.55
2023-03-29T08:14:30.457Z,2.55
2023-03-29T08:15:32.271Z,2.60
2023-03-29T08:16:33.964Z,2.83
2023-03-29T08:17:36.429Z,2.75
2023-03-29T08:18:38.109Z,2.60
2023-03-29T08:19:39.850Z,2.10
2023-03-29T08:20:41.636Z,2.08
2023-03-29T08:21:43.328Z,2.25
2023-03-29T08:22:45.066Z,2.10
2023-03-29T08:23:47.207Z,2.63
2023-03-29T08:24:48.931Z,2.70
2023-03-29T08:25:50.604Z,2.65
2023-03-29T08:26:52.593Z,2.40
2023-03-29T08:27:54.336Z,2.63
2023-03-29T08:28:56.102Z,2.22
2023-03-29T08:29:57.760Z,2.28
2023-03-29T08:30:59.616Z,2.60
2023-03-29T08:32:01.451Z,2.05
2023-03-29T08:33:03.244Z,2.33
2023-03-29T08:34:05.005Z,2.20
2023-03-29T08:35:09.787Z,2.08
2023-03-29T08:36:11.719Z,2.35
2023-03-29T08:37:14.134Z,2.13
2023-03-29T08:38:16.442Z,2.47
2023-03-29T08:39:19.614Z,1.95
2023-03-29T08:40:28.164Z,2.20
2023-03-29T08:41:46.745Z,2.38
2023-03-29T08:43:18.752Z,2.45
2023-03-29T08:44:29.220Z,2.70
2023-03-29T08:45:35.666Z,2.65
2023-03-29T08:47:30.058Z,2.10
2023-03-29T08:48:57.132Z,2.83
2023-03-29T08:49:59.351Z,2.10
2023-03-29T08:51:09.350Z,2.63
2023-03-29T08:52:36.985Z,2.22
2023-03-29T08:53:52.942Z,2.33
2023-03-29T08:54:57.504Z,1.77
2023-03-29T08:56:04.770Z,2.22
2023-03-29T08:57:22.224Z,2.58
2023-03-29T08:58:27.423Z,2.40
2023-03-29T08:59:33.419Z,1.77
2023-03-29T09:01:06.210Z,3.08
2023-03-29T09:02:17.986Z,2.22
2023-03-29T09:03:24.206Z,2.40
2023-03-29T09:04:34.967Z,2.70
2023-03-29T09:05:42.196Z,1.80
2023-03-29T09:06:44.346Z,1.77
2023-03-29T09:07:46.242Z,2.38
2023-03-29T09:08:50.440Z,2.40
2023-03-29T09:09:52.429Z,1.80
2023-03-29T09:11:00.129Z,2.22
2023-03-29T09:12:20.926Z,1.98
2023-03-29T09:13:30.637Z,1.58
2023-03-29T09:15:08.748Z,1.60
2023-03-29T09:16:24.602Z,1.02
2023-03-29T09:17:35.847Z,1.65
2023-03-29T09:19:07.096Z,1.10
2023-03-29T09:20:22.243Z,1.50
2023-03-29T09:22:42.123Z,1.50
2023-03-29T09:23:47.203Z,1.10
2023-03-29T09:25:13.585Z,1.08
2023-03-29T09:26:30.247Z,1.45
2023-03-29T09:27:50.559Z,1.33
2023-03-29T09:29:19.901Z,2.22
2023-03-29T09:30:47.917Z,1.60
2023-03-29T09:31:49.953Z,1.50
2023-03-29T09:33:03.672Z,1.38
2023-03-29T09:34:29.039Z,1.40
2023-03-29T09:35:43.552Z,1.20
2023-03-29T09:36:52.694Z,1.75
2023-03-29T09:37:55.156Z,1.85
2023-03-29T09:38:57.123Z,1.58
2023-03-29T09:40:00.094Z,1.55
2023-03-29T09:42:14.332Z,1.20
2023-03-29T09:43:21.733Z,1.30
2023-03-29T09:44:31.162Z,1.98
2023-03-29T09:45:36.911Z,1.70
2023-03-29T09:46:42.337Z,1.63
2023-03-29T09:47:55.731Z,1.55
2023-03-29T09:48:57.449Z,1.80
2023-03-29T09:50:27.172Z,2.20
2023-03-29T09:51:34.495Z,2.20
2023-03-29T09:52:36.498Z,2.33
2023-03-29T09:53:38.186Z,2.40
2023-03-29T09:54:40.401Z,2.22
2023-03-29T09:55:44.482Z,2.10
2023-03-29T09:56:46.849Z,2.50
2023-03-29T09:57:50.337Z,1.85
2023-03-29T09:58:52.029Z,2.05
2023-03-29T09:59:54.767Z,2.00
2023-03-29T10:01:03.420Z,2.30
2023-03-29T10:02:10.454Z,2.08
2023-03-29T10:03:24.020Z,2.03
2023-03-29T10:04:27.035Z,2.17
2023-03-29T10:05:32.193Z,2.63
2023-03-29T10:06:37.108Z,1.73
2023-03-29T10:07:46.477Z,2.58
2023-03-29T10:08:54.001Z,2.10
2023-03-29T10:09:56.295Z,2.30
2023-03-29T10:10:59.936Z,2.20
2023-03-29T10:12:07.973Z,2.28
2023-03-29T10:13:27.987Z,2.15
2023-03-29T10:14:38.391Z,2.40
2023-03-29T10:15:40.072Z,1.88
2023-03-29T10:16:46.451Z,2.05
2023-03-29T10:17:48.906Z,2.30
2023-03-29T10:18:50.772Z,3.63
2023-03-29T10:19:57.324Z,2.25
2023-03-29T10:21:02.824Z,2.28
2023-03-29T10:22:07.948Z,2.28
2023-03-29T10:23:17.484Z,2.00
2023-03-29T10:24:21.528Z,2.08
2023-03-29T10:25:28.109Z,2.70
2023-03-29T10:26:32.771Z,1.73
2023-03-29T10:27:37.065Z,2.30
2023-03-29T10:28:38.986Z,2.22
2023-03-29T10:29:42.836Z,2.00
2023-03-29T10:30:46.586Z,2.10
2023-03-29T10:31:48.858Z,2.15
2023-03-29T10:32:58.204Z,1.73
2023-03-29T10:34:06.557Z,1.33
2023-03-29T10:35:26.303Z,1.90
2023-03-29T10:36:28.143Z,1.95
2023-03-29T10:37:30.271Z,2.00
2023-03-29T10:38:32.212Z,1.70
2023-03-29T10:39:35.044Z,1.98
2023-03-29T10:40:44.994Z,1.95
2023-03-29T10:41:50.693Z,1.73
2023-03-29T10:42:54.136Z,1.50
2023-03-29T10:43:55.955Z,1.58
2023-03-29T10:44:59.661Z,1.73
2023-03-29T10:46:29.000Z,1.63
2023-03-29T10:47:34.577Z,2.45
2023-03-29T10:48:36.622Z,1.75
2023-03-29T10:49:44.886Z,2.00
2023-03-29T10:50:53.317Z,2.22
2023-03-29T10:51:55.021Z,2.13
2023-03-29T10:52:57.100Z,1.65
2023-03-29T10:53:59.662Z,1.80
2023-03-29T10:55:01.761Z,1.42
2023-03-29T10:56:12.181Z,1.50
2023-03-29T10:57:22.266Z,1.90
2023-03-29T10:58:38.418Z,1.50
2023-03-29T10:59:51.347Z,1.70
2023-03-29T11:00:57.163Z,1.65
2023-03-29T11:02:24.616Z,1.40
2023-03-29T11:04:00.413Z,2.05
2023-03-29T11:05:50.278Z,2.00
2023-03-29T11:06:57.876Z,1.58
2023-03-29T11:08:18.110Z,1.52
2023-03-29T11:09:24.369Z,1.73
2023-03-29T11:10:55.428Z,1.90
2023-03-29T11:12:24.412Z,2.17
2023-03-29T11:13:49.408Z,1.63
2023-03-29T11:15:18.350Z,1.35
2023-03-29T11:16:34.086Z,1.48
2023-03-29T11:17:42.656Z,1.45
2023-03-29T11:18:47.437Z,1.70
2023-03-29T11:20:05.303Z,2.03
2023-03-29T11:21:26.763Z,1.55
2023-03-29T11:22:48.727Z,1.10
2023-03-29T11:23:59.897Z,1.25
2023-03-29T11:25:20.208Z,1.42
2023-03-29T11:26:46.515Z,1.75
2023-03-29T11:27:53.824Z,1.60
2023-03-29T11:29:16.328Z,1.52
2023-03-29T11:30:36.366Z,1.38
2023-03-29T11:32:05.872Z,1.45
2023-03-29T11:33:33.016Z,1.70
2023-03-29T11:34:59.776Z,1.25
2023-03-29T11:36:04.451Z,1.42
2023-03-29T11:37:19.622Z,1.08
2023-03-29T11:38:35.712Z,1.10
2023-03-29T11:39:49.427Z,1.77
2023-03-29T11:40:57.350Z,1.38
2023-03-29T11:42:09.632Z,1.40
2023-03-29T11:43:55.254Z,1.85
2023-03-29T11:44:59.862Z,1.25
2023-03-29T11:46:23.737Z,1.30
2023-03-29T11:47:31.862Z,1.70
2023-03-29T11:48:38.648Z,1.60
2023-03-29T11:49:49.407Z,1.40
2023-03-29T11:51:12.399Z,1.75
2023-03-29T11:52:19.378Z,1.35
2023-03-29T11:53:37.932Z,1.38
2023-03-29T11:54:47.868Z,1.75
2023-03-29T11:55:52.834Z,1.65
2023-03-29T11:57:13.296Z,1.40
2023-03-29T11:58:23.417Z,1.40
2023-03-29T11:59:32.354Z,1.38
2023-03-29T12:00:34.136Z,1.30
2023-03-29T12:01:42.788Z,1.60
2023-03-29T12:03:13.281Z,1.17
2023-03-29T12:04:38.093Z,1.40
2023-03-29T12:05:47.096Z,1.42
2023-03-29T12:08:18.932Z,1.35
2023-03-29T12:09:32.722Z,1.30
2023-03-29T12:10:37.937Z,1.23
2023-03-29T12:12:00.418Z,1.42
2023-03-29T12:13:17.245Z,1.38
2023-03-29T12:14:38.478Z,1.48
2023-03-29T12:18:16.847Z,1.63
2023-03-29T12:19:24.332Z,1.38
2023-03-29T12:20:31.457Z,1.70
2023-03-29T12:21:35.496Z,1.63
2023-03-29T12:22:38.049Z,1.80
2023-03-29T12:23:42.495Z,1.70
2023-03-29T12:24:47.158Z,1.58
2023-03-29T12:26:17.569Z,2.03
2023-03-29T12:27:26.290Z,1.70
2023-03-29T12:28:39.091Z,1.38
2023-03-29T12:30:02.750Z,1.30
2023-03-29T12:31:04.524Z,1.77
2023-03-29T12:32:50.655Z,1.52
2023-03-29T12:34:13.436Z,1.42
2023-03-29T12:35:25.336Z,1.48
2023-03-29T12:37:08.792Z,2.00
2023-03-29T12:38:15.864Z,1.50
2023-03-29T12:39:19.344Z,2.05
2023-03-29T12:40:24.489Z,1.70
2023-03-29T12:41:26.652Z,2.13
2023-03-29T12:42:28.617Z,1.85
2023-03-29T12:43:36.742Z,1.70
2023-03-29T12:44:40.422Z,1.77
2023-03-29T12:45:48.716Z,2.20
2023-03-29T12:46:59.898Z,2.33
2023-03-29T12:48:02.040Z,1.60
2023-03-29T12:49:34.054Z,1.73
2023-03-29T12:50:57.550Z,1.90
2023-03-29T12:52:00.879Z,2.15
2023-03-29T12:53:04.387Z,1.90
2023-03-29T12:54:12.913Z,1.92
2023-03-29T12:55:43.901Z,1.90
2023-03-29T12:56:52.078Z,1.80
2023-03-29T12:58:26.358Z,1.70
2023-03-29T12:59:27.963Z,1.88
2023-03-29T13:00:56.239Z,1.95
2023-03-29T13:02:01.824Z,1.40
2023-03-29T13:03:18.949Z,1.85
2023-03-29T13:04:22.614Z,1.75
2023-03-29T13:05:30.040Z,1.90
2023-03-29T13:06:56.430Z,2.00
2023-03-29T13:07:58.222Z,1.77
2023-03-29T13:09:05.170Z,1.73
2023-03-29T13:10:28.573Z,1.85
2023-03-29T13:11:41.563Z,1.65
2023-03-29T13:12:46.206Z,2.40
2023-03-29T13:13:50.868Z,2.05
2023-03-29T13:15:02.187Z,2.40
2023-03-29T13:16:10.147Z,1.75
2023-03-29T13:17:40.157Z,2.72
2023-03-29T13:18:47.705Z,1.75
2023-03-29T13:20:09.647Z,2.00
2023-03-29T13:21:27.984Z,1.60
2023-03-29T13:22:53.945Z,1.30
2023-03-29T13:24:10.810Z,1.60
2023-03-29T13:25:45.770Z,1.45
2023-03-29T13:26:58.649Z,1.70
2023-03-29T13:28:10.622Z,1.83
2023-03-29T13:29:50.116Z,1.70
2023-03-29T13:30:56.116Z,1.95
2023-03-29T13:32:06.530Z,1.73
2023-03-29T13:33:38.337Z,1.50
2023-03-29T13:34:53.860Z,1.70
2023-03-29T13:36:18.570Z,1.70
2023-03-29T13:37:44.299Z,1.42
2023-03-29T13:38:49.005Z,1.83
2023-03-29T13:39:53.903Z,1.92
2023-03-29T13:41:01.596Z,1.77
2023-03-29T13:42:37.448Z,2.17
2023-03-29T13:43:56.625Z,2.03
2023-03-29T13:45:23.938Z,2.38
2023-03-29T13:47:48.903Z,1.70
2023-03-29T13:49:06.993Z,1.90
2023-03-29T13:50:20.288Z,1.58
2023-03-29T13:51:31.897Z,1.67
2023-03-29T13:52:39.510Z,2.30
2023-03-29T13:53:44.187Z,1.50
2023-03-29T13:54:53.161Z,2.15
2023-03-29T13:57:09.023Z,1.77
2023-03-29T13:58:18.857Z,1.90
2023-03-29T13:59:44.811Z,2.17
2023-03-29T14:01:13.593Z,1.83
2023-03-29T14:02:22.745Z,2.15
2023-03-29T14:03:29.919Z,1.80
2023-03-29T14:04:38.032Z,1.42
2023-03-29T14:05:43.860Z,1.73
2023-03-29T14:06:52.952Z,2.60
2023-03-29T14:07:55.755Z,2.22
2023-03-29T14:09:02.412Z,2.10
2023-03-29T14:10:04.602Z,2.25
2023-03-29T14:11:08.370Z,1.98
2023-03-29T14:12:13.764Z,2.13
2023-03-29T14:13:18.311Z,2.00
2023-03-29T14:14:27.256Z,2.45
2023-03-29T14:16:42.537Z,1.95
2023-03-29T14:17:44.317Z,2.30
2023-03-29T14:18:48.058Z,2.05
2023-03-29T14:19:50.534Z,2.25
2023-03-29T14:20:55.622Z,2.08
2023-03-29T14:21:58.152Z,1.80
2023-03-29T14:23:00.644Z,1.48
2023-03-29T14:24:02.523Z,2.25
2023-03-29T14:25:14.703Z,1.60
2023-03-29T14:26:19.133Z,1.85
2023-03-29T14:27:22.289Z,2.00
2023-03-29T14:28:29.100Z,1.88
2023-03-29T14:29:32.607Z,1.70
2023-03-29T14:30:34.237Z,1.95
2023-03-29T14:31:38.844Z,2.67
2023-03-29T14:32:40.822Z,1.83
2023-03-29T14:33:42.739Z,2.10
2023-03-29T14:34:48.584Z,2.10
2023-03-29T14:35:50.708Z,2.83
2023-03-29T14:36:54.324Z,2.10
2023-03-29T14:37:56.698Z,2.35
2023-03-29T14:39:03.133Z,2.38
2023-03-29T14:40:09.200Z,2.20
2023-03-29T14:41:11.030Z,2.17
2023-03-29T14:42:17.549Z,2.75
2023-03-29T14:43:24.685Z,2.35
2023-03-29T14:44:31.211Z,2.33
2023-03-29T14:45:33.031Z,2.78
2023-03-29T14:46:35.464Z,2.30
2023-03-29T14:47:38.967Z,3.83
2023-03-29T14:48:40.944Z,2.60
2023-03-29T14:49:43.809Z,2.55
2023-03-29T14:51:49.519Z,2.30
2023-03-29T14:53:55.025Z,2.55
2023-03-29T14:54:59.678Z,2.45
2023-03-29T14:56:02.321Z,2.25
2023-03-29T14:57:08.377Z,2.33
2023-03-29T14:58:21.626Z,2.10
2023-03-29T14:59:37.126Z,2.10
2023-03-29T15:00:42.609Z,2.42
2023-03-29T15:01:44.834Z,2.72
2023-03-29T15:02:54.358Z,2.20
2023-03-29T15:03:57.497Z,2.40
2023-03-29T15:05:03.662Z,2.53
2023-03-29T15:06:06.004Z,2.22
2023-03-29T15:07:09.453Z,2.70
2023-03-29T15:08:18.105Z,2.67
2023-03-29T15:09:34.335Z,2.78
2023-03-29T15:10:38.139Z,2.63
2023-03-29T15:11:40.016Z,2.50
2023-03-29T15:12:43.416Z,2.72
2023-03-29T15:13:46.818Z,2.20
2023-03-29T15:14:51.428Z,2.50
2023-03-29T15:15:58.957Z,2.58
2023-03-29T15:17:06.416Z,2.78